sensor_id;sensor_type;location;lat;lon;timestamp;P1;durP1;ratioP1;P2;durP2;ratioP2
11709;SDS011;5911;51.036;6.972;2022-09-06T00:01:11;2.65;;;2.13;;
11709;SDS011;5911;51.036;6.972;2022-09-06T00:03:42;3.80;;;2.22;;
11709;SDS011;5911;51.036;6.972;2022-09-06T00:06:11;3.03;;;2.22;;
11709;SDS011;5911;51.036;6.972;2022-09-06T00:08:41;3.88;;;2.20;;
11709;SDS011;5911;51.036;6.972;2022-09-06T00:11:11;3.88;;;2.13;;
11709;SDS011;5911;51.036;6.972;2022-09-06T00:13:39;3.10;;;1.80;;
11709;SDS011;5911;51.036;6.972;2022-09-06T00:16:08;2.35;;;2.13;;
11709;SDS011;5911;51.036;6.972;2022-09-06T00:18:38;2.47;;;1.92;;
11709;SDS011;5911;51.036;6.972;2022-09-06T00:21:13;3.17;;;2.28;;
11709;SDS011;5911;51.036;6.972;2022-09-06T00:23:44;2.58;;;1.85;;
11709;SDS011;5911;51.036;6.972;2022-09-06T00:26:12;1.83;;;1.73;;
11709;SDS011;5911;51.036;6.972;2022-09-06T00:28:41;4.63;;;2.10;;
11709;SDS011;5911;51.036;6.972;2022-09-06T00:31:09;5.07;;;2.45;;
11709;SDS011;5911;51.036;6.972;2022-09-06T00:33:38;3.53;;;2.40;;
11709;SDS011;5911;51.036;6.972;2022-09-06T00:36:06;12.50;;;3.67;;
11709;SDS011;5911;51.036;6.972;2022-09-06T00:38:36;6.80;;;3.20;;
11709;SDS011;5911;51.036;6.972;2022-09-06T00:41:05;4.57;;;2.90;;
11709;SDS011;5911;51.036;6.972;2022-09-06T00:43:34;5.53;;;2.60;;
11709;SDS011;5911;51.036;6.972;2022-09-06T00:46:02;4.53;;;3.45;;
11709;SDS011;5911;51.036;6.972;2022-09-06T00:48:32;7.45;;;3.70;;
11709;SDS011;5911;51.036;6.972;2022-09-06T00:51:03;5.47;;;3.30;;
11709;SDS011;5911;51.036;6.972;2022-09-06T00:53:36;6.05;;;3.17;;
11709;SDS011;5911;51.036;6.972;2022-09-06T00:56:04;4.90;;;3.20;;
11709;SDS011;5911;51.036;6.972;2022-09-06T00:58:32;7.45;;;3.20;;
11709;SDS011;5911;51.036;6.972;2022-09-06T01:01:01;5.82;;;3.47;;
11709;SDS011;5911;51.036;6.972;2022-09-06T01:03:29;3.60;;;3.30;;
11709;SDS011;5911;51.036;6.972;2022-09-06T01:05:59;9.82;;;4.10;;
11709;SDS011;5911;51.036;6.972;2022-09-06T01:08:41;4.55;;;3.50;;
11709;SDS011;5911;51.036;6.972;2022-09-06T01:11:20;5.10;;;3.92;;
11709;SDS011;5911;51.036;6.972;2022-09-06T01:14:06;8.80;;;3.80;;
11709;SDS011;5911;51.036;6.972;2022-09-06T01:16:42;7.50;;;4.10;;
11709;SDS011;5911;51.036;6.972;2022-09-06T01:19:29;5.40;;;4.07;;
11709;SDS011;5911;51.036;6.972;2022-09-06T01:22:44;5.30;;;4.10;;
11709;SDS011;5911;51.036;6.972;2022-09-06T01:25:33;6.50;;;4.03;;
11709;SDS011;5911;51.036;6.972;2022-09-06T01:28:14;5.32;;;4.57;;
11709;SDS011;5911;51.036;6.972;2022-09-06T01:30:52;7.43;;;4.78;;
11709;SDS011;5911;51.036;6.972;2022-09-06T01:33:31;6.63;;;4.53;;
11709;SDS011;5911;51.036;6.972;2022-09-06T01:36:05;5.93;;;4.25;;
11709;SDS011;5911;51.036;6.972;2022-09-06T01:38:37;7.72;;;4.70;;
11709;SDS011;5911;51.036;6.972;2022-09-06T01:41:05;6.43;;;4.50;;
11709;SDS011;5911;51.036;6.972;2022-09-06T01:43:35;5.85;;;4.65;;
11709;SDS011;5911;51.036;6.972;2022-09-06T01:46:08;6.45;;;5.22;;
11709;SDS011;5911;51.036;6.972;2022-09-06T01:48:47;8.00;;;4.97;;
11709;SDS011;5911;51.036;6.972;2022-09-06T01:51:30;7.30;;;5.30;;
11709;SDS011;5911;51.036;6.972;2022-09-06T01:54:14;7.03;;;5.10;;
11709;SDS011;5911;51.036;6.972;2022-09-06T01:56:52;7.15;;;5.18;;
11709;SDS011;5911;51.036;6.972;2022-09-06T01:59:41;5.50;;;4.38;;
11709;SDS011;5911;51.036;6.972;2022-09-06T02:02:26;9.50;;;5.32;;
11709;SDS011;5911;51.036;6.972;2022-09-06T02:05:04;8.85;;;5.05;;
11709;SDS011;5911;51.036;6.972;2022-09-06T02:07:35;7.63;;;5.30;;
11709;SDS011;5911;51.036;6.972;2022-09-06T02:10:06;8.80;;;5.15;;
11709;SDS011;5911;51.036;6.972;2022-09-06T02:12:38;8.13;;;5.68;;
11709;SDS011;5911;51.036;6.972;2022-09-06T02:15:12;8.20;;;5.65;;
11709;SDS011;5911;51.036;6.972;2022-09-06T02:17:44;9.18;;;5.80;;
11709;SDS011;5911;51.036;6.972;2022-09-06T02:20:19;7.30;;;5.78;;
11709;SDS011;5911;51.036;6.972;2022-09-06T02:22:51;7.43;;;5.63;;
11709;SDS011;5911;51.036;6.972;2022-09-06T02:25:23;6.30;;;5.30;;
11709;SDS011;5911;51.036;6.972;2022-09-06T02:27:53;7.65;;;6.25;;
11709;SDS011;5911;51.036;6.972;2022-09-06T02:30:23;9.50;;;6.13;;
11709;SDS011;5911;51.036;6.972;2022-09-06T02:32:52;8.90;;;6.43;;
11709;SDS011;5911;51.036;6.972;2022-09-06T02:35:25;9.30;;;6.18;;
11709;SDS011;5911;51.036;6.972;2022-09-06T02:37:52;7.60;;;6.53;;
11709;SDS011;5911;51.036;6.972;2022-09-06T02:40:21;10.40;;;6.20;;
11709;SDS011;5911;51.036;6.972;2022-09-06T02:42:49;7.03;;;5.60;;
11709;SDS011;5911;51.036;6.972;2022-09-06T02:45:18;6.93;;;6.25;;
11709;SDS011;5911;51.036;6.972;2022-09-06T02:47:47;8.77;;;5.63;;
11709;SDS011;5911;51.036;6.972;2022-09-06T02:50:15;6.65;;;6.03;;
11709;SDS011;5911;51.036;6.972;2022-09-06T02:52:43;8.88;;;6.18;;
11709;SDS011;5911;51.036;6.972;2022-09-06T02:55:11;7.10;;;5.93;;
11709;SDS011;5911;51.036;6.972;2022-09-06T02:57:39;7.55;;;5.88;;
11709;SDS011;5911;51.036;6.972;2022-09-06T03:00:07;7.10;;;6.32;;
11709;SDS011;5911;51.036;6.972;2022-09-06T03:02:36;8.00;;;5.93;;
11709;SDS011;5911;51.036;6.972;2022-09-06T03:05:05;8.20;;;5.90;;
11709;SDS011;5911;51.036;6.972;2022-09-06T03:07:33;7.50;;;6.07;;
11709;SDS011;5911;51.036;6.972;2022-09-06T03:10:01;6.97;;;6.28;;
11709;SDS011;5911;51.036;6.972;2022-09-06T03:12:30;6.80;;;5.88;;
11709;SDS011;5911;51.036;6.972;2022-09-06T03:14:58;12.30;;;7.40;;
11709;SDS011;5911;51.036;6.972;2022-09-06T03:17:26;12.93;;;8.15;;
11709;SDS011;5911;51.036;6.972;2022-09-06T03:19:53;17.35;;;8.93;;
11709;SDS011;5911;51.036;6.972;2022-09-06T03:22:23;13.20;;;8.93;;
11709;SDS011;5911;51.036;6.972;2022-09-06T03:24:51;11.82;;;7.65;;
11709;SDS011;5911;51.036;6.972;2022-09-06T03:27:18;11.45;;;7.20;;
11709;SDS011;5911;51.036;6.972;2022-09-06T03:29:46;11.32;;;7.20;;
11709;SDS011;5911;51.036;6.972;2022-09-06T03:32:14;7.47;;;6.63;;
11709;SDS011;5911;51.036;6.972;2022-09-06T03:34:42;6.93;;;6.18;;
11709;SDS011;5911;51.036;6.972;2022-09-06T03:37:10;9.38;;;5.72;;
11709;SDS011;5911;51.036;6.972;2022-09-06T03:39:39;8.63;;;6.18;;
11709;SDS011;5911;51.036;6.972;2022-09-06T03:42:07;10.20;;;6.78;;
11709;SDS011;5911;51.036;6.972;2022-09-06T03:44:35;8.57;;;5.93;;
11709;SDS011;5911;51.036;6.972;2022-09-06T03:47:03;8.32;;;5.85;;
11709;SDS011;5911;51.036;6.972;2022-09-06T03:49:31;7.55;;;6.22;;
11709;SDS011;5911;51.036;6.972;2022-09-06T03:51:59;9.43;;;6.20;;
11709;SDS011;5911;51.036;6.972;2022-09-06T03:54:27;7.85;;;5.90;;
11709;SDS011;5911;51.036;6.972;2022-09-06T03:56:56;10.05;;;5.93;;
11709;SDS011;5911;51.036;6.972;2022-09-06T03:59:24;8.23;;;6.97;;
11709;SDS011;5911;51.036;6.972;2022-09-06T04:01:52;7.88;;;6.53;;
11709;SDS011;5911;51.036;6.972;2022-09-06T04:04:20;7.40;;;5.78;;
11709;SDS011;5911;51.036;6.972;2022-09-06T04:06:48;9.07;;;6.38;;
11709;SDS011;5911;51.036;6.972;2022-09-06T04:09:16;11.20;;;6.25;;
11709;SDS011;5911;51.036;6.972;2022-09-06T04:11:44;7.00;;;5.65;;
11709;SDS011;5911;51.036;6.972;2022-09-06T04:14:13;7.93;;;6.15;;
11709;SDS011;5911;51.036;6.972;2022-09-06T04:16:41;8.23;;;5.95;;
11709;SDS011;5911;51.036;6.972;2022-09-06T04:19:09;6.47;;;5.88;;
11709;SDS011;5911;51.036;6.972;2022-09-06T04:21:37;6.18;;;5.65;;
11709;SDS011;5911;51.036;6.972;2022-09-06T04:24:05;8.77;;;5.65;;
11709;SDS011;5911;51.036;6.972;2022-09-06T04:26:33;5.88;;;5.32;;
11709;SDS011;5911;51.036;6.972;2022-09-06T04:29:01;5.47;;;4.80;;
11709;SDS011;5911;51.036;6.972;2022-09-06T04:31:31;6.85;;;5.38;;
11709;SDS011;5911;51.036;6.972;2022-09-06T04:33:59;7.55;;;4.95;;
11709;SDS011;5911;51.036;6.972;2022-09-06T04:36:26;7.35;;;5.32;;
11709;SDS011;5911;51.036;6.972;2022-09-06T04:38:55;5.82;;;5.10;;
11709;SDS011;5911;51.036;6.972;2022-09-06T04:41:22;5.50;;;4.50;;
11709;SDS011;5911;51.036;6.972;2022-09-06T04:43:50;5.40;;;4.90;;
11709;SDS011;5911;51.036;6.972;2022-09-06T04:46:19;5.78;;;5.18;;
11709;SDS011;5911;51.036;6.972;2022-09-06T04:48:50;6.30;;;5.15;;
11709;SDS011;5911;51.036;6.972;2022-09-06T04:51:20;8.52;;;5.72;;
11709;SDS011;5911;51.036;6.972;2022-09-06T04:53:48;6.40;;;5.30;;
11709;SDS011;5911;51.036;6.972;2022-09-06T04:56:17;7.13;;;4.93;;
11709;SDS011;5911;51.036;6.972;2022-09-06T04:58:47;7.30;;;5.50;;
11709;SDS011;5911;51.036;6.972;2022-09-06T05:01:16;7.25;;;5.50;;
11709;SDS011;5911;51.036;6.972;2022-09-06T05:03:45;7.75;;;5.55;;
11709;SDS011;5911;51.036;6.972;2022-09-06T05:06:18;6.63;;;5.13;;
11709;SDS011;5911;51.036;6.972;2022-09-06T05:08:48;5.65;;;5.10;;
11709;SDS011;5911;51.036;6.972;2022-09-06T05:11:16;7.50;;;5.28;;
11709;SDS011;5911;51.036;6.972;2022-09-06T05:13:45;8.82;;;5.57;;
11709;SDS011;5911;51.036;6.972;2022-09-06T05:16:13;7.28;;;5.63;;
11709;SDS011;5911;51.036;6.972;2022-09-06T05:18:41;7.40;;;5.95;;
11709;SDS011;5911;51.036;6.972;2022-09-06T05:21:09;8.60;;;5.75;;
11709;SDS011;5911;51.036;6.972;2022-09-06T05:23:38;7.15;;;5.68;;
11709;SDS011;5911;51.036;6.972;2022-09-06T05:26:06;7.95;;;5.50;;
11709;SDS011;5911;51.036;6.972;2022-09-06T05:28:34;8.27;;;6.40;;
11709;SDS011;5911;51.036;6.972;2022-09-06T05:31:06;8.60;;;6.57;;
11709;SDS011;5911;51.036;6.972;2022-09-06T05:33:35;7.80;;;6.40;;
11709;SDS011;5911;51.036;6.972;2022-09-06T05:36:04;11.38;;;6.70;;
11709;SDS011;5911;51.036;6.972;2022-09-06T05:38:33;9.35;;;5.90;;
11709;SDS011;5911;51.036;6.972;2022-09-06T05:41:02;7.35;;;5.40;;
11709;SDS011;5911;51.036;6.972;2022-09-06T05:43:30;7.22;;;5.10;;
11709;SDS011;5911;51.036;6.972;2022-09-06T05:45:58;7.00;;;4.88;;
11709;SDS011;5911;51.036;6.972;2022-09-06T05:48:26;8.10;;;5.00;;
11709;SDS011;5911;51.036;6.972;2022-09-06T05:50:59;6.22;;;4.75;;
11709;SDS011;5911;51.036;6.972;2022-09-06T05:53:32;5.15;;;4.72;;
11709;SDS011;5911;51.036;6.972;2022-09-06T05:56:02;6.78;;;4.75;;
11709;SDS011;5911;51.036;6.972;2022-09-06T05:58:30;7.97;;;5.32;;
11709;SDS011;5911;51.036;6.972;2022-09-06T06:01:05;9.57;;;5.43;;
11709;SDS011;5911;51.036;6.972;2022-09-06T06:03:34;6.13;;;5.25;;
11709;SDS011;5911;51.036;6.972;2022-09-06T06:06:02;5.32;;;4.35;;
11709;SDS011;5911;51.036;6.972;2022-09-06T06:08:29;6.32;;;5.32;;
11709;SDS011;5911;51.036;6.972;2022-09-06T06:10:58;6.45;;;5.30;;
11709;SDS011;5911;51.036;6.972;2022-09-06T06:13:28;7.30;;;4.43;;
11709;SDS011;5911;51.036;6.972;2022-09-06T06:16:00;6.10;;;5.43;;
11709;SDS011;5911;51.036;6.972;2022-09-06T06:18:29;8.23;;;5.90;;
11709;SDS011;5911;51.036;6.972;2022-09-06T06:21:09;9.48;;;6.00;;
11709;SDS011;5911;51.036;6.972;2022-09-06T06:23:38;8.88;;;6.05;;
11709;SDS011;5911;51.036;6.972;2022-09-06T06:26:07;9.80;;;6.50;;
11709;SDS011;5911;51.036;6.972;2022-09-06T06:28:37;10.07;;;6.53;;
11709;SDS011;5911;51.036;6.972;2022-09-06T06:31:06;9.57;;;6.60;;
11709;SDS011;5911;51.036;6.972;2022-09-06T06:33:36;8.27;;;6.40;;
11709;SDS011;5911;51.036;6.972;2022-09-06T06:36:05;7.05;;;5.40;;
11709;SDS011;5911;51.036;6.972;2022-09-06T06:38:46;6.85;;;4.82;;
11709;SDS011;5911;51.036;6.972;2022-09-06T06:41:15;6.20;;;4.70;;
11709;SDS011;5911;51.036;6.972;2022-09-06T06:43:46;5.00;;;4.50;;
11709;SDS011;5911;51.036;6.972;2022-09-06T06:46:14;7.63;;;5.45;;
11709;SDS011;5911;51.036;6.972;2022-09-06T06:48:44;7.88;;;5.65;;
11709;SDS011;5911;51.036;6.972;2022-09-06T06:51:18;11.50;;;5.47;;
11709;SDS011;5911;51.036;6.972;2022-09-06T06:53:47;8.68;;;5.03;;
11709;SDS011;5911;51.036;6.972;2022-09-06T06:56:16;8.00;;;5.45;;
11709;SDS011;5911;51.036;6.972;2022-09-06T06:58:47;9.57;;;6.07;;
11709;SDS011;5911;51.036;6.972;2022-09-06T07:01:16;12.07;;;7.13;;
11709;SDS011;5911;51.036;6.972;2022-09-06T07:03:45;11.15;;;7.13;;
11709;SDS011;5911;51.036;6.972;2022-09-06T07:06:13;11.20;;;6.38;;
11709;SDS011;5911;51.036;6.972;2022-09-06T07:08:42;9.18;;;5.32;;
11709;SDS011;5911;51.036;6.972;2022-09-06T07:11:10;6.30;;;4.65;;
11709;SDS011;5911;51.036;6.972;2022-09-06T07:13:39;10.45;;;5.07;;
11709;SDS011;5911;51.036;6.972;2022-09-06T07:16:10;5.72;;;4.43;;
11709;SDS011;5911;51.036;6.972;2022-09-06T07:18:40;6.72;;;5.18;;
11709;SDS011;5911;51.036;6.972;2022-09-06T07:21:10;6.20;;;5.35;;
11709;SDS011;5911;51.036;6.972;2022-09-06T07:23:59;7.15;;;5.53;;
11709;SDS011;5911;51.036;6.972;2022-09-06T07:26:32;13.68;;;6.95;;
11709;SDS011;5911;51.036;6.972;2022-09-06T07:29:02;12.40;;;7.25;;
11709;SDS011;5911;51.036;6.972;2022-09-06T07:31:32;14.55;;;7.35;;
11709;SDS011;5911;51.036;6.972;2022-09-06T07:34:21;16.02;;;8.27;;
11709;SDS011;5911;51.036;6.972;2022-09-06T07:36:52;13.10;;;7.13;;
11709;SDS011;5911;51.036;6.972;2022-09-06T07:39:20;14.75;;;7.97;;
11709;SDS011;5911;51.036;6.972;2022-09-06T07:41:48;17.35;;;8.93;;
11709;SDS011;5911;51.036;6.972;2022-09-06T07:44:16;12.85;;;7.78;;
11709;SDS011;5911;51.036;6.972;2022-09-06T07:46:45;9.68;;;5.80;;
11709;SDS011;5911;51.036;6.972;2022-09-06T07:49:13;7.32;;;5.20;;
11709;SDS011;5911;51.036;6.972;2022-09-06T07:51:41;13.45;;;6.22;;
11709;SDS011;5911;51.036;6.972;2022-09-06T07:54:09;14.45;;;6.90;;
11709;SDS011;5911;51.036;6.972;2022-09-06T07:56:56;14.55;;;6.45;;
11709;SDS011;5911;51.036;6.972;2022-09-06T07:59:24;4.95;;;4.15;;
11709;SDS011;5911;51.036;6.972;2022-09-06T08:01:54;4.63;;;3.67;;
11709;SDS011;5911;51.036;6.972;2022-09-06T08:04:22;7.65;;;3.00;;
11709;SDS011;5911;51.036;6.972;2022-09-06T08:06:50;6.55;;;3.65;;
11709;SDS011;5911;51.036;6.972;2022-09-06T08:09:38;6.10;;;4.20;;
11709;SDS011;5911;51.036;6.972;2022-09-06T08:12:06;9.73;;;4.35;;
11709;SDS011;5911;51.036;6.972;2022-09-06T08:14:35;5.97;;;3.45;;
11709;SDS011;5911;51.036;6.972;2022-09-06T08:17:04;7.22;;;4.07;;
11709;SDS011;5911;51.036;6.972;2022-09-06T08:19:32;4.68;;;2.95;;
11709;SDS011;5911;51.036;6.972;2022-09-06T08:22:00;4.53;;;2.90;;
11709;SDS011;5911;51.036;6.972;2022-09-06T08:24:28;4.75;;;2.92;;
11709;SDS011;5911;51.036;6.972;2022-09-06T08:26:57;3.00;;;2.70;;
11709;SDS011;5911;51.036;6.972;2022-09-06T08:29:24;6.38;;;3.25;;
11709;SDS011;5911;51.036;6.972;2022-09-06T08:31:53;6.65;;;2.97;;
11709;SDS011;5911;51.036;6.972;2022-09-06T08:34:22;5.47;;;2.80;;
11709;SDS011;5911;51.036;6.972;2022-09-06T08:36:50;3.92;;;2.63;;
11709;SDS011;5911;51.036;6.972;2022-09-06T08:39:18;6.32;;;3.65;;
11709;SDS011;5911;51.036;6.972;2022-09-06T08:41:48;6.65;;;3.05;;
11709;SDS011;5911;51.036;6.972;2022-09-06T08:44:20;4.82;;;2.63;;
11709;SDS011;5911;51.036;6.972;2022-09-06T08:47:10;3.42;;;2.00;;
11709;SDS011;5911;51.036;6.972;2022-09-06T08:49:40;2.17;;;1.80;;
11709;SDS011;5911;51.036;6.972;2022-09-06T08:52:19;2.30;;;1.73;;
11709;SDS011;5911;51.036;6.972;2022-09-06T08:58:19;4.15;;;1.95;;
11709;SDS011;5911;51.036;6.972;2022-09-06T09:00:56;3.05;;;1.83;;
11709;SDS011;5911;51.036;6.972;2022-09-06T09:03:30;2.25;;;1.40;;
11709;SDS011;5911;51.036;6.972;2022-09-06T09:06:00;3.42;;;1.38;;
11709;SDS011;5911;51.036;6.972;2022-09-06T09:08:31;1.63;;;1.50;;
11709;SDS011;5911;51.036;6.972;2022-09-06T09:11:06;6.93;;;3.08;;
11709;SDS011;5911;51.036;6.972;2022-09-06T09:13:38;4.15;;;2.55;;
11709;SDS011;5911;51.036;6.972;2022-09-06T09:16:10;4.97;;;2.72;;
11709;SDS011;5911;51.036;6.972;2022-09-06T09:18:40;5.22;;;2.30;;
11709;SDS011;5911;51.036;6.972;2022-09-06T09:21:18;4.05;;;2.65;;
11709;SDS011;5911;51.036;6.972;2022-09-06T09:23:55;4.20;;;2.40;;
11709;SDS011;5911;51.036;6.972;2022-09-06T09:26:25;7.22;;;4.20;;
11709;SDS011;5911;51.036;6.972;2022-09-06T09:29:00;5.75;;;3.40;;
11709;SDS011;5911;51.036;6.972;2022-09-06T09:31:34;4.53;;;3.10;;
11709;SDS011;5911;51.036;6.972;2022-09-06T09:34:03;3.35;;;2.08;;
11709;SDS011;5911;51.036;6.972;2022-09-06T09:36:33;4.32;;;1.70;;
11709;SDS011;5911;51.036;6.972;2022-09-06T09:39:07;4.00;;;1.73;;
11709;SDS011;5911;51.036;6.972;2022-09-06T09:41:36;2.22;;;1.88;;
11709;SDS011;5911;51.036;6.972;2022-09-06T09:44:08;2.58;;;1.75;;
11709;SDS011;5911;51.036;6.972;2022-09-06T09:46:42;2.53;;;1.50;;
11709;SDS011;5911;51.036;6.972;2022-09-06T09:49:11;3.08;;;2.00;;
11709;SDS011;5911;51.036;6.972;2022-09-06T09:51:42;3.78;;;1.83;;
11709;SDS011;5911;51.036;6.972;2022-09-06T09:54:13;2.15;;;1.73;;
11709;SDS011;5911;51.036;6.972;2022-09-06T09:56:56;3.40;;;1.92;;
11709;SDS011;5911;51.036;6.972;2022-09-06T09:59:25;4.60;;;2.10;;
11709;SDS011;5911;51.036;6.972;2022-09-06T10:01:59;2.38;;;2.00;;
11709;SDS011;5911;51.036;6.972;2022-09-06T10:04:30;5.07;;;2.63;;
11709;SDS011;5911;51.036;6.972;2022-09-06T10:07:11;3.63;;;2.20;;
11709;SDS011;5911;51.036;6.972;2022-09-06T10:09:42;3.80;;;2.10;;
11709;SDS011;5911;51.036;6.972;2022-09-06T10:12:14;6.05;;;2.17;;
11709;SDS011;5911;51.036;6.972;2022-09-06T10:14:45;2.65;;;1.90;;
11709;SDS011;5911;51.036;6.972;2022-09-06T10:17:19;2.63;;;2.00;;
11709;SDS011;5911;51.036;6.972;2022-09-06T10:19:48;3.70;;;1.92;;
11709;SDS011;5911;51.036;6.972;2022-09-06T10:22:25;3.53;;;1.73;;
11709;SDS011;5911;51.036;6.972;2022-09-06T10:25:01;2.42;;;1.80;;
11709;SDS011;5911;51.036;6.972;2022-09-06T10:27:50;2.50;;;1.73;;
11709;SDS011;5911;51.036;6.972;2022-09-06T10:30:38;2.40;;;1.88;;
11709;SDS011;5911;51.036;6.972;2022-09-06T10:33:15;3.60;;;1.83;;
11709;SDS011;5911;51.036;6.972;2022-09-06T10:35:51;1.75;;;1.63;;
11709;SDS011;5911;51.036;6.972;2022-09-06T10:38:25;4.22;;;1.77;;
11709;SDS011;5911;51.036;6.972;2022-09-06T10:41:09;2.63;;;1.65;;
11709;SDS011;5911;51.036;6.972;2022-09-06T10:43:53;8.07;;;2.60;;
11709;SDS011;5911;51.036;6.972;2022-09-06T10:46:26;1.67;;;1.42;;
11709;SDS011;5911;51.036;6.972;2022-09-06T10:48:55;2.33;;;1.63;;
11709;SDS011;5911;51.036;6.972;2022-09-06T10:51:25;2.13;;;1.92;;
11709;SDS011;5911;51.036;6.972;2022-09-06T10:54:02;2.58;;;1.60;;
11709;SDS011;5911;51.036;6.972;2022-09-06T10:56:35;2.85;;;1.58;;
11709;SDS011;5911;51.036;6.972;2022-09-06T10:59:11;3.65;;;1.65;;
11709;SDS011;5911;51.036;6.972;2022-09-06T11:02:01;4.97;;;1.80;;
11709;SDS011;5911;51.036;6.972;2022-09-06T11:04:37;3.60;;;1.90;;
11709;SDS011;5911;51.036;6.972;2022-09-06T11:07:27;2.85;;;1.60;;
11709;SDS011;5911;51.036;6.972;2022-09-06T11:09:59;4.50;;;1.50;;
11709;SDS011;5911;51.036;6.972;2022-09-06T11:12:31;2.83;;;1.85;;
11709;SDS011;5911;51.036;6.972;2022-09-06T11:15:06;3.03;;;1.40;;
11709;SDS011;5911;51.036;6.972;2022-09-06T11:17:39;2.10;;;1.45;;
11709;SDS011;5911;51.036;6.972;2022-09-06T11:20:13;1.83;;;1.33;;
11709;SDS011;5911;51.036;6.972;2022-09-06T11:28:47;2.80;;;1.75;;
11709;SDS011;5911;51.036;6.972;2022-09-06T11:31:21;2.53;;;1.50;;
11709;SDS011;5911;51.036;6.972;2022-09-06T11:34:11;2.83;;;1.52;;
11709;SDS011;5911;51.036;6.972;2022-09-06T11:36:47;4.07;;;1.30;;
11709;SDS011;5911;51.036;6.972;2022-09-06T11:39:23;2.95;;;1.50;;
11709;SDS011;5911;51.036;6.972;2022-09-06T11:45:39;3.13;;;1.40;;
11709;SDS011;5911;51.036;6.972;2022-09-06T11:51:04;2.80;;;1.70;;
11709;SDS011;5911;51.036;6.972;2022-09-06T11:56:31;2.90;;;2.13;;
11709;SDS011;5911;51.036;6.972;2022-09-06T11:59:06;2.80;;;1.60;;
11709;SDS011;5911;51.036;6.972;2022-09-06T12:01:59;2.35;;;1.30;;
11709;SDS011;5911;51.036;6.972;2022-09-06T12:07:34;2.95;;;1.55;;
11709;SDS011;5911;51.036;6.972;2022-09-06T12:13:18;4.03;;;1.45;;
11709;SDS011;5911;51.036;6.972;2022-09-06T12:16:00;2.45;;;1.40;;
11709;SDS011;5911;51.036;6.972;2022-09-06T12:21:31;4.75;;;1.98;;
11709;SDS011;5911;51.036;6.972;2022-09-06T12:24:03;2.70;;;1.55;;
11709;SDS011;5911;51.036;6.972;2022-09-06T12:26:46;1.95;;;1.50;;
11709;SDS011;5911;51.036;6.972;2022-09-06T12:29:22;3.17;;;1.60;;
11709;SDS011;5911;51.036;6.972;2022-09-06T12:31:51;3.70;;;2.00;;
11709;SDS011;5911;51.036;6.972;2022-09-06T12:34:23;3.22;;;1.50;;
11709;SDS011;5911;51.036;6.972;2022-09-06T12:36:54;2.08;;;1.52;;
11709;SDS011;5911;51.036;6.972;2022-09-06T12:39:24;2.13;;;1.42;;
11709;SDS011;5911;51.036;6.972;2022-09-06T12:41:54;2.92;;;1.50;;
11709;SDS011;5911;51.036;6.972;2022-09-06T12:44:26;3.08;;;1.70;;
11709;SDS011;5911;51.036;6.972;2022-09-06T12:47:02;3.05;;;1.50;;
11709;SDS011;5911;51.036;6.972;2022-09-06T12:49:38;2.35;;;1.60;;
11709;SDS011;5911;51.036;6.972;2022-09-06T12:52:08;1.55;;;1.45;;
11709;SDS011;5911;51.036;6.972;2022-09-06T12:54:41;2.78;;;1.38;;
11709;SDS011;5911;51.036;6.972;2022-09-06T12:57:18;4.28;;;1.70;;
11709;SDS011;5911;51.036;6.972;2022-09-06T12:59:51;3.47;;;1.30;;
11709;SDS011;5911;51.036;6.972;2022-09-06T13:02:22;3.10;;;1.92;;
11709;SDS011;5911;51.036;6.972;2022-09-06T13:05:00;1.88;;;1.25;;
11709;SDS011;5911;51.036;6.972;2022-09-06T13:07:31;2.53;;;1.40;;
11709;SDS011;5911;51.036;6.972;2022-09-06T13:10:01;2.50;;;1.33;;
11709;SDS011;5911;51.036;6.972;2022-09-06T13:12:30;3.17;;;1.38;;
11709;SDS011;5911;51.036;6.972;2022-09-06T13:15:01;1.98;;;1.50;;
11709;SDS011;5911;51.036;6.972;2022-09-06T13:17:33;4.40;;;1.85;;
11709;SDS011;5911;51.036;6.972;2022-09-06T13:20:10;2.35;;;1.65;;
11709;SDS011;5911;51.036;6.972;2022-09-06T13:22:41;3.65;;;1.55;;
11709;SDS011;5911;51.036;6.972;2022-09-06T13:25:12;2.78;;;1.85;;
11709;SDS011;5911;51.036;6.972;2022-09-06T13:27:46;5.35;;;1.90;;
11709;SDS011;5911;51.036;6.972;2022-09-06T13:30:33;4.20;;;1.83;;
11709;SDS011;5911;51.036;6.972;2022-09-06T13:33:03;3.17;;;1.63;;
11709;SDS011;5911;51.036;6.972;2022-09-06T13:35:35;2.55;;;1.75;;
11709;SDS011;5911;51.036;6.972;2022-09-06T13:38:20;3.55;;;1.73;;
11709;SDS011;5911;51.036;6.972;2022-09-06T13:40:56;5.25;;;1.70;;
11709;SDS011;5911;51.036;6.972;2022-09-06T13:43:42;2.67;;;1.30;;
11709;SDS011;5911;51.036;6.972;2022-09-06T13:46:12;2.65;;;1.25;;
11709;SDS011;5911;51.036;6.972;2022-09-06T13:48:41;3.25;;;1.38;;
11709;SDS011;5911;51.036;6.972;2022-09-06T13:51:11;1.60;;;1.40;;
11709;SDS011;5911;51.036;6.972;2022-09-06T13:53:39;1.80;;;1.30;;
11709;SDS011;5911;51.036;6.972;2022-09-06T13:56:07;3.10;;;1.42;;
11709;SDS011;5911;51.036;6.972;2022-09-06T13:58:37;3.05;;;1.48;;
11709;SDS011;5911;51.036;6.972;2022-09-06T14:01:05;2.42;;;1.35;;
11709;SDS011;5911;51.036;6.972;2022-09-06T14:03:35;4.97;;;1.30;;
11709;SDS011;5911;51.036;6.972;2022-09-06T14:06:07;2.35;;;1.55;;
11709;SDS011;5911;51.036;6.972;2022-09-06T14:08:37;4.97;;;1.60;;
11709;SDS011;5911;51.036;6.972;2022-09-06T14:11:27;3.45;;;1.80;;
11709;SDS011;5911;51.036;6.972;2022-09-06T14:13:55;2.15;;;1.65;;
11709;SDS011;5911;51.036;6.972;2022-09-06T14:16:26;2.67;;;1.60;;
11709;SDS011;5911;51.036;6.972;2022-09-06T14:18:54;2.33;;;1.70;;
11709;SDS011;5911;51.036;6.972;2022-09-06T14:21:23;3.10;;;1.40;;
11709;SDS011;5911;51.036;6.972;2022-09-06T14:23:52;3.83;;;1.65;;
11709;SDS011;5911;51.036;6.972;2022-09-06T14:26:21;2.90;;;1.67;;
11709;SDS011;5911;51.036;6.972;2022-09-06T14:28:49;3.33;;;1.50;;
11709;SDS011;5911;51.036;6.972;2022-09-06T14:31:18;2.10;;;1.40;;
11709;SDS011;5911;51.036;6.972;2022-09-06T14:33:47;2.45;;;1.30;;
11709;SDS011;5911;51.036;6.972;2022-09-06T14:36:16;2.63;;;2.00;;
11709;SDS011;5911;51.036;6.972;2022-09-06T14:38:45;3.50;;;1.40;;
11709;SDS011;5911;51.036;6.972;2022-09-06T14:41:16;1.60;;;1.45;;
11709;SDS011;5911;51.036;6.972;2022-09-06T14:43:47;3.42;;;1.48;;
11709;SDS011;5911;51.036;6.972;2022-09-06T14:46:16;2.97;;;1.33;;
11709;SDS011;5911;51.036;6.972;2022-09-06T14:48:46;4.10;;;3.58;;
11709;SDS011;5911;51.036;6.972;2022-09-06T14:51:15;4.28;;;1.90;;
11709;SDS011;5911;51.036;6.972;2022-09-06T14:53:48;4.53;;;3.75;;
11709;SDS011;5911;51.036;6.972;2022-09-06T14:56:19;3.85;;;2.50;;
11709;SDS011;5911;51.036;6.972;2022-09-06T14:58:48;1.85;;;1.52;;
11709;SDS011;5911;51.036;6.972;2022-09-06T15:01:17;2.10;;;1.30;;
11709;SDS011;5911;51.036;6.972;2022-09-06T15:03:47;3.60;;;1.15;;
11709;SDS011;5911;51.036;6.972;2022-09-06T15:06:17;2.00;;;1.20;;
11709;SDS011;5911;51.036;6.972;2022-09-06T15:08:47;2.25;;;1.40;;
11709;SDS011;5911;51.036;6.972;2022-09-06T15:11:26;1.58;;;1.00;;
11709;SDS011;5911;51.036;6.972;2022-09-06T15:13:56;3.28;;;1.25;;
11709;SDS011;5911;51.036;6.972;2022-09-06T15:16:24;3.40;;;1.60;;
11709;SDS011;5911;51.036;6.972;2022-09-06T15:18:52;2.78;;;1.60;;
11709;SDS011;5911;51.036;6.972;2022-09-06T15:21:20;3.35;;;1.40;;
11709;SDS011;5911;51.036;6.972;2022-09-06T15:23:49;2.65;;;1.20;;
11709;SDS011;5911;51.036;6.972;2022-09-06T15:26:17;3.63;;;1.40;;
11709;SDS011;5911;51.036;6.972;2022-09-06T15:28:47;3.20;;;1.20;;
11709;SDS011;5911;51.036;6.972;2022-09-06T15:31:15;2.08;;;1.00;;
11709;SDS011;5911;51.036;6.972;2022-09-06T15:33:44;2.58;;;1.42;;
11709;SDS011;5911;51.036;6.972;2022-09-06T15:36:14;2.72;;;1.20;;
11709;SDS011;5911;51.036;6.972;2022-09-06T15:38:43;4.38;;;1.27;;
11709;SDS011;5911;51.036;6.972;2022-09-06T15:41:13;2.90;;;0.90;;
11709;SDS011;5911;51.036;6.972;2022-09-06T15:43:43;2.78;;;1.10;;
11709;SDS011;5911;51.036;6.972;2022-09-06T15:46:14;3.72;;;1.48;;
11709;SDS011;5911;51.036;6.972;2022-09-06T15:48:43;5.85;;;1.75;;
11709;SDS011;5911;51.036;6.972;2022-09-06T15:51:13;2.45;;;1.60;;
11709;SDS011;5911;51.036;6.972;2022-09-06T15:53:42;2.40;;;1.50;;
11709;SDS011;5911;51.036;6.972;2022-09-06T15:56:12;4.40;;;1.10;;